createdAt,value
2019-02-20T00:02:12.718Z,3.85
2019-02-20T00:04:45.249Z,3.98
2019-02-20T00:07:21.931Z,3.87
2019-02-20T00:09:57.634Z,4.03
2019-02-20T00:12:34.918Z,4.25
2019-02-20T00:15:12.026Z,4.05
2019-02-20T00:17:40.044Z,4.33
2019-02-20T00:20:15.159Z,3.20
2019-02-20T00:22:50.395Z,4.03
2019-02-20T00:25:24.241Z,3.90
2019-02-20T00:27:58.406Z,4.12
2019-02-20T00:30:33.194Z,3.72
2019-02-20T00:33:05.933Z,3.58
2019-02-20T00:35:40.872Z,3.65
2019-02-20T00:38:14.088Z,4.08
2019-02-20T00:40:47.607Z,3.72
2019-02-20T00:43:21.643Z,3.90
2019-02-20T00:46:17.736Z,3.67
2019-02-20T00:48:57.123Z,3.35
2019-02-20T00:51:34.104Z,4.15
2019-02-20T00:54:09.529Z,3.60
2019-02-20T00:56:45.301Z,3.70
2019-02-20T00:59:17.569Z,3.55
2019-02-20T01:01:53.244Z,3.98
2019-02-20T01:04:27.039Z,4.15
2019-02-20T01:06:59.975Z,3.75
2019-02-20T01:09:36.429Z,3.45
2019-02-20T01:12:08.975Z,4.25
2019-02-20T01:14:44.355Z,3.75
2019-02-20T01:17:17.668Z,4.45
2019-02-20T01:19:57.594Z,3.45
2019-02-20T01:22:30.949Z,3.75
2019-02-20T01:25:14.141Z,4.05
2019-02-20T01:27:47.741Z,3.75
2019-02-20T01:30:24.419Z,4.20
2019-02-20T01:32:57.216Z,4.50
2019-02-20T01:35:33.235Z,3.75
2019-02-20T01:38:08.915Z,3.87
2019-02-20T01:40:43.832Z,4.05
2019-02-20T01:43:18.514Z,3.92
2019-02-20T01:45:52.409Z,4.62
2019-02-20T01:48:26.375Z,3.80
2019-02-20T01:51:03.969Z,3.70
2019-02-20T01:53:38.156Z,4.33
2019-02-20T01:56:11.997Z,3.80
2019-02-20T01:58:46.869Z,3.80
2019-02-20T02:01:22.750Z,3.80
2019-02-20T02:03:58.179Z,4.20
2019-02-20T02:06:34.639Z,3.45
2019-02-20T02:09:07.097Z,3.08
2019-02-20T02:11:45.395Z,3.62
2019-02-20T02:14:21.340Z,3.37
2019-02-20T02:16:55.038Z,3.83
2019-02-20T02:19:29.171Z,3.87
2019-02-20T02:22:04.665Z,4.20
2019-02-20T02:24:39.438Z,3.90
2019-02-20T02:27:12.431Z,5.03
2019-02-20T02:29:53.533Z,3.98
2019-02-20T02:32:25.307Z,3.67
2019-02-20T02:35:00.036Z,3.98
2019-02-20T02:37:37.424Z,4.80
2019-02-20T02:40:11.032Z,3.77
2019-02-20T02:42:43.640Z,3.83
2019-02-20T02:45:17.147Z,3.85
2019-02-20T02:47:56.775Z,3.85
2019-02-20T02:50:29.229Z,4.12
2019-02-20T02:53:07.503Z,3.98
2019-02-20T02:55:41.583Z,3.83
2019-02-20T02:58:16.117Z,4.20
2019-02-20T03:00:48.751Z,3.90
2019-02-20T03:03:22.147Z,4.15
2019-02-20T03:05:55.799Z,4.33
2019-02-20T03:08:33.173Z,4.37
2019-02-20T03:11:09.273Z,4.62
2019-02-20T03:13:42.485Z,4.20
2019-02-20T03:16:18.020Z,4.47
2019-02-20T03:18:52.908Z,4.72
2019-02-20T03:21:26.238Z,4.53
2019-02-20T03:24:03.706Z,5.15
2019-02-20T03:26:37.341Z,3.90
2019-02-20T03:29:12.492Z,4.50
2019-02-20T03:31:45.288Z,4.17
2019-02-20T03:34:21.712Z,4.12
2019-02-20T03:36:56.584Z,4.33
2019-02-20T03:39:30.003Z,4.55
2019-02-20T03:42:02.694Z,4.85
2019-02-20T03:44:36.281Z,4.33
2019-02-20T03:47:10.244Z,4.87
2019-02-20T03:49:44.591Z,4.50
2019-02-20T03:52:20.723Z,4.97
2019-02-20T03:54:56.860Z,3.98
2019-02-20T03:57:31.274Z,4.08
2019-02-20T04:00:05.366Z,4.90
2019-02-20T04:02:40.892Z,4.33
2019-02-20T04:05:13.921Z,4.65
2019-02-20T04:07:48.458Z,5.25
2019-02-20T04:10:20.726Z,5.50
2019-02-20T04:12:55.797Z,4.95
2019-02-20T04:15:30.137Z,4.90
2019-02-20T04:18:06.016Z,4.60
2019-02-20T04:20:39.157Z,4.85
2019-02-20T04:23:13.853Z,5.20
2019-02-20T04:25:46.001Z,4.47
2019-02-20T04:28:19.649Z,5.25
2019-02-20T04:30:53.646Z,4.97
2019-02-20T04:33:25.428Z,4.65
2019-02-20T04:36:00.230Z,4.87
2019-02-20T04:38:33.723Z,5.35
2019-02-20T04:41:05.158Z,5.17
2019-02-20T04:43:37.766Z,5.47
2019-02-20T04:46:15.134Z,5.17
2019-02-20T04:48:48.522Z,5.40
2019-02-20T04:51:21.691Z,5.90
2019-02-20T04:53:54.624Z,5.70
2019-02-20T04:56:28.203Z,5.08
2019-02-20T04:59:03.345Z,4.67
2019-02-20T05:01:36.654Z,5.53
2019-02-20T05:04:10.433Z,5.50
2019-02-20T05:06:44.642Z,5.60
2019-02-20T05:09:20.645Z,5.80
2019-02-20T05:11:53.641Z,5.53
2019-02-20T05:14:27.540Z,5.60
2019-02-20T05:16:59.228Z,5.70
2019-02-20T05:19:32.993Z,6.28
2019-02-20T05:22:06.641Z,6.15
2019-02-20T05:24:43.331Z,6.30
2019-02-20T05:27:25.885Z,6.45
2019-02-20T05:30:01.794Z,6.55
2019-02-20T05:32:37.482Z,7.42
2019-02-20T05:35:10.635Z,6.72
2019-02-20T05:37:44.758Z,6.95
2019-02-20T05:40:17.076Z,6.60
2019-02-20T05:42:50.301Z,6.10
2019-02-20T05:45:23.427Z,6.65
2019-02-20T05:50:44.797Z,6.42
2019-02-20T05:53:18.654Z,6.67
2019-02-20T05:55:50.843Z,6.10
2019-02-20T05:58:24.049Z,7.33
2019-02-20T06:00:55.694Z,7.35
2019-02-20T06:03:26.098Z,7.03
2019-02-20T06:06:00.016Z,7.50
2019-02-20T06:08:31.702Z,8.10
2019-02-20T06:11:12.198Z,7.00
2019-02-20T06:13:36.187Z,7.87
2019-02-20T06:16:13.810Z,8.70
2019-02-20T06:18:50.472Z,8.23
2019-02-20T06:21:24.851Z,8.90
2019-02-20T06:23:59.468Z,8.53
2019-02-20T06:26:34.347Z,8.75
2019-02-20T06:29:06.581Z,9.53
2019-02-20T06:31:40.665Z,9.83
2019-02-20T06:34:12.430Z,9.23
2019-02-20T06:36:43.899Z,10.05
2019-02-20T06:39:15.449Z,9.58
2019-02-20T06:41:44.334Z,9.20
2019-02-20T06:44:15.054Z,9.65
2019-02-20T06:46:45.959Z,11.00
2019-02-20T06:49:17.942Z,10.38
2019-02-20T06:51:49.550Z,10.43
2019-02-20T06:54:21.388Z,11.00
2019-02-20T06:56:52.399Z,10.38
2019-02-20T06:59:22.297Z,10.78
2019-02-20T07:01:59.380Z,11.85
2019-02-20T07:04:31.336Z,11.25
2019-02-20T07:07:08.597Z,11.33
2019-02-20T07:09:50.102Z,11.20
2019-02-20T07:12:40.395Z,11.63
2019-02-20T07:15:48.163Z,11.83
2019-02-20T07:18:29.974Z,10.10
2019-02-20T07:21:13.789Z,11.53
2019-02-20T07:24:15.506Z,11.90
2019-02-20T07:27:04.521Z,13.13
2019-02-20T07:29:46.474Z,12.35
2019-02-20T07:32:18.562Z,12.80
2019-02-20T07:34:52.933Z,13.98
2019-02-20T07:37:23.230Z,13.68
2019-02-20T07:39:57.453Z,14.45
2019-02-20T07:42:30.301Z,14.77
2019-02-20T07:45:12.739Z,14.50
2019-02-20T07:47:44.494Z,12.93
2019-02-20T07:50:25.686Z,15.10
2019-02-20T07:52:55.320Z,13.93
2019-02-20T07:55:27.985Z,14.10
2019-02-20T07:57:57.975Z,14.55
2019-02-20T08:00:27.635Z,15.20
2019-02-20T08:03:03.092Z,14.60
2019-02-20T08:05:37.588Z,14.57
2019-02-20T08:08:10.513Z,15.00
2019-02-20T08:10:50.389Z,14.70
2019-02-20T08:13:25.041Z,15.37
2019-02-20T08:15:59.859Z,14.97
2019-02-20T08:18:36.660Z,14.90
2019-02-20T08:21:06.629Z,14.73
2019-02-20T08:23:37.404Z,15.77
2019-02-20T08:26:16.839Z,14.47
2019-02-20T08:28:40.767Z,16.27
2019-02-20T08:31:11.206Z,14.93
2019-02-20T08:33:48.723Z,14.63
2019-02-20T08:36:18.103Z,14.43
2019-02-20T08:38:48.962Z,14.70
2019-02-20T08:41:21.577Z,15.93
2019-02-20T08:43:56.246Z,15.73
2019-02-20T08:46:29.341Z,15.13
2019-02-20T08:49:03.221Z,17.90
2019-02-20T08:51:32.404Z,15.37
2019-02-20T08:54:08.865Z,15.83
2019-02-20T08:56:41.052Z,16.13
2019-02-20T08:59:13.691Z,16.50
2019-02-20T09:01:45.841Z,14.93
2019-02-20T09:04:15.819Z,16.53
2019-02-20T09:06:47.348Z,15.10
2019-02-20T09:09:16.942Z,13.57
2019-02-20T09:11:46.563Z,12.73
2019-02-20T09:14:15.278Z,12.47
2019-02-20T09:16:44.015Z,10.83
2019-02-20T09:19:18.379Z,12.73
2019-02-20T09:21:52.052Z,11.40
2019-02-20T09:24:25.316Z,11.73
2019-02-20T09:27:02.245Z,11.63
2019-02-20T09:29:33.488Z,11.10
2019-02-20T09:32:04.055Z,10.50
2019-02-20T09:34:38.786Z,11.23
2019-02-20T09:37:08.720Z,11.77
2019-02-20T09:39:48.726Z,12.50
2019-02-20T09:42:20.705Z,11.07
2019-02-20T09:44:57.547Z,12.23
2019-02-20T09:47:30.762Z,10.83
2019-02-20T09:50:04.416Z,11.57
2019-02-20T09:52:38.284Z,10.63
2019-02-20T09:55:16.715Z,11.10
2019-02-20T09:57:59.108Z,10.77
2019-02-20T10:00:20.366Z,10.07
2019-02-20T10:02:53.828Z,10.70
2019-02-20T10:05:28.115Z,9.70
2019-02-20T10:08:07.095Z,10.70
2019-02-20T10:10:39.639Z,10.33
2019-02-20T10:13:12.381Z,10.43
2019-02-20T10:15:45.510Z,9.37
2019-02-20T10:18:16.878Z,8.33
2019-02-20T10:20:46.227Z,9.03
2019-02-20T10:23:26.075Z,8.73
2019-02-20T10:26:00.922Z,8.80
2019-02-20T10:28:30.352Z,8.90
2019-02-20T10:31:07.547Z,9.37
2019-02-20T10:33:40.443Z,9.40
2019-02-20T10:36:15.710Z,9.80
2019-02-20T10:38:51.468Z,9.77
2019-02-20T10:41:23.461Z,9.93
2019-02-20T10:44:04.839Z,9.97
2019-02-20T10:46:34.769Z,9.30
2019-02-20T10:49:06.880Z,10.30
2019-02-20T10:51:38.227Z,9.53
2019-02-20T10:54:13.236Z,8.10
2019-02-20T10:56:45.669Z,8.37
2019-02-20T10:59:17.532Z,8.00
2019-02-20T11:01:47.437Z,10.83
2019-02-20T11:04:20.316Z,8.00
2019-02-20T11:13:26.298Z,6.50
2019-02-20T11:15:58.923Z,7.37
2019-02-20T11:18:42.899Z,6.97
2019-02-20T11:21:23.087Z,6.10
2019-02-20T11:23:54.105Z,7.17
2019-02-20T11:26:25.268Z,7.07
2019-02-20T11:29:20.186Z,7.07
2019-02-20T11:31:57.867Z,6.80
2019-02-20T11:34:36.002Z,6.77
2019-02-20T11:37:01.887Z,6.80
2019-02-20T11:39:37.689Z,7.10
2019-02-20T11:42:07.061Z,5.67
2019-02-20T11:44:39.279Z,5.30
2019-02-20T11:47:09.218Z,5.23
2019-02-20T11:49:42.521Z,5.10
2019-02-20T11:52:47.751Z,5.47
2019-02-20T11:55:26.608Z,5.17
2019-02-20T11:58:13.600Z,4.60
2019-02-20T12:00:45.699Z,5.10
2019-02-20T12:03:42.206Z,5.30
2019-02-20T12:06:13.207Z,4.33
2019-02-20T12:08:47.375Z,4.47
2019-02-20T12:11:18.044Z,5.87
2019-02-20T12:13:47.295Z,4.73
2019-02-20T12:16:19.773Z,5.00
2019-02-20T12:18:53.181Z,5.10
2019-02-20T12:21:22.689Z,5.37
2019-02-20T12:24:17.071Z,5.57
2019-02-20T12:26:49.412Z,5.90
2019-02-20T12:29:56.118Z,5.33
2019-02-20T12:32:27.977Z,5.60
2019-02-20T12:35:34.173Z,6.50
2019-02-20T12:38:03.196Z,5.60
2019-02-20T12:40:59.003Z,5.47
2019-02-20T12:43:28.021Z,5.57
2019-02-20T12:46:31.480Z,7.00
2019-02-20T12:49:03.494Z,6.23
2019-02-20T12:52:16.823Z,5.63
2019-02-20T12:54:50.599Z,6.03
2019-02-20T13:11:03.003Z,5.70
2019-02-20T13:13:38.116Z,7.07
2019-02-20T13:19:42.530Z,6.43
2019-02-20T13:23:00.274Z,6.43
2019-02-20T13:25:29.628Z,6.20
2019-02-20T13:27:59.537Z,5.90
2019-02-20T13:30:38.099Z,6.23
2019-02-20T13:33:09.531Z,6.50
2019-02-20T13:36:30.406Z,6.50
2019-02-20T13:39:01.130Z,6.47
2019-02-20T13:42:05.285Z,6.90
2019-02-20T13:44:36.481Z,7.03
2019-02-20T13:47:58.119Z,6.93
2019-02-20T13:50:29.176Z,6.83
2019-02-20T13:53:36.399Z,6.57
2019-02-20T13:56:08.105Z,6.80
2019-02-20T13:59:16.338Z,6.87
2019-02-20T14:01:55.989Z,7.00
2019-02-20T14:05:12.398Z,6.30
2019-02-20T14:07:48.375Z,6.57
2019-02-20T14:17:13.280Z,7.00
2019-02-20T14:19:48.988Z,6.63
2019-02-20T14:22:43.683Z,7.37
2019-02-20T14:25:27.289Z,7.37
2019-02-20T14:28:25.171Z,6.80
2019-02-20T14:33:44.259Z,6.83
2019-02-20T14:36:26.071Z,6.63
2019-02-20T14:39:09.428Z,6.47
2019-02-20T14:41:45.438Z,5.80
2019-02-20T14:47:32.799Z,6.77
2019-02-20T14:50:49.820Z,6.47
2019-02-20T14:53:30.720Z,6.33
2019-02-20T14:56:05.192Z,6.70
2019-02-20T14:58:38.077Z,6.70
2019-02-20T15:01:10.105Z,7.40
2019-02-20T15:03:56.801Z,6.90
2019-02-20T15:06:29.359Z,6.17
2019-02-20T15:09:37.043Z,6.37
2019-02-20T15:12:15.238Z,6.80
2019-02-20T15:15:26.111Z,6.70
2019-02-20T15:18:02.551Z,5.70
2019-02-20T15:29:41.114Z,6.13
2019-02-20T15:32:17.134Z,5.63
2019-02-20T15:34:47.168Z,5.50
2019-02-20T15:44:10.677Z,6.30
2019-02-20T15:46:47.403Z,7.87
2019-02-20T15:49:16.754Z,6.90
2019-02-20T15:51:48.460Z,6.60
2019-02-20T15:54:21.522Z,6.37
2019-02-20T15:57:00.084Z,6.03
2019-02-20T15:59:44.649Z,5.97
2019-02-20T16:02:21.837Z,6.17
2019-02-20T16:05:00.652Z,5.23
2019-02-20T16:07:41.477Z,5.17
2019-02-20T16:10:49.940Z,5.10
2019-02-20T16:13:23.624Z,4.33
2019-02-20T16:16:02.040Z,5.03
2019-02-20T16:18:31.345Z,4.63
2019-02-20T16:21:12.876Z,4.87
2019-02-20T16:23:47.815Z,4.87
2019-02-20T16:27:05.726Z,5.90
2019-02-20T16:29:44.466Z,5.97
2019-02-20T16:32:22.134Z,5.70
2019-02-20T16:34:55.644Z,4.67
2019-02-20T16:38:03.213Z,9.50
2019-02-20T16:40:35.399Z,8.47
2019-02-20T16:43:55.599Z,6.87
2019-02-20T16:46:33.050Z,5.93
2019-02-20T16:49:47.758Z,7.20
2019-02-20T16:52:23.416Z,6.23
2019-02-20T16:55:39.776Z,6.37
2019-02-20T16:58:13.528Z,5.10
2019-02-20T17:04:00.091Z,5.67
2019-02-20T17:06:51.095Z,6.50
2019-02-20T17:11:54.805Z,6.80
2019-02-20T17:15:09.386Z,6.50
2019-02-20T17:17:44.556Z,6.13
2019-02-20T17:20:46.670Z,7.13
2019-02-20T17:23:20.440Z,6.97
2019-02-20T17:33:04.128Z,6.30
2019-02-20T17:35:43.091Z,6.33
2019-02-20T17:39:07.354Z,7.10
2019-02-20T17:41:48.392Z,9.53
2019-02-20T17:44:47.612Z,9.20
2019-02-20T17:50:35.941Z,7.23
2019-02-20T17:53:19.351Z,6.97
2019-02-20T17:59:03.732Z,6.53
2019-02-20T18:04:46.107Z,6.70
2019-02-20T18:07:53.281Z,6.30
2019-02-20T18:10:34.645Z,5.90
2019-02-20T18:13:44.200Z,6.37
2019-02-20T18:16:17.392Z,6.60
2019-02-20T18:19:08.823Z,6.27
2019-02-20T18:21:44.273Z,5.60
2019-02-20T18:24:37.212Z,6.03
2019-02-20T18:27:09.905Z,5.70
2019-02-20T18:30:12.794Z,5.30
2019-02-20T18:32:38.903Z,5.60
2019-02-20T18:35:50.642Z,4.87
2019-02-20T18:38:26.510Z,5.40
2019-02-20T18:41:36.262Z,5.53
2019-02-20T18:44:11.937Z,6.83
2019-02-20T18:46:46.762Z,6.60
2019-02-20T18:49:21.258Z,6.20
2019-02-20T18:51:53.404Z,7.37
2019-02-20T18:54:37.519Z,8.00
2019-02-20T18:57:23.097Z,7.17
2019-02-20T19:00:16.007Z,7.07
2019-02-20T19:02:53.101Z,9.27
2019-02-20T19:05:33.646Z,7.80
2019-02-20T19:08:26.651Z,8.93
2019-02-20T19:11:07.667Z,7.33
2019-02-20T19:13:57.348Z,6.93
2019-02-20T19:16:53.154Z,7.50
2019-02-20T19:19:45.173Z,7.37
2019-02-20T19:22:44.281Z,7.20
2019-02-20T19:25:45.891Z,8.83
2019-02-20T19:28:44.099Z,9.07
2019-02-20T19:31:21.808Z,15.07
2019-02-20T19:40:52.307Z,8.67
2019-02-20T19:43:35.737Z,8.50
2019-02-20T19:46:11.751Z,7.73
2019-02-20T19:49:07.996Z,8.43
2019-02-20T19:51:48.903Z,8.37
2019-02-20T19:54:33.009Z,8.03
2019-02-20T19:57:20.104Z,9.57
2019-02-20T20:00:32.700Z,9.50
2019-02-20T20:03:13.724Z,8.10
2019-02-20T20:06:37.163Z,8.13
2019-02-20T20:09:44.718Z,8.73
2019-02-20T20:13:07.567Z,7.77
2019-02-20T20:16:11.172Z,7.40
2019-02-20T20:19:15.099Z,8.40
2019-02-20T20:22:14.313Z,8.03
2019-02-20T20:25:34.244Z,8.50
2019-02-20T20:28:23.606Z,8.07
2019-02-20T20:34:26.367Z,9.13
2019-02-20T20:37:24.896Z,8.67
2019-02-20T20:40:08.200Z,10.33
2019-02-20T20:43:20.265Z,8.55
2019-02-20T20:46:16.144Z,8.73
2019-02-20T20:49:17.694Z,8.67
2019-02-20T20:52:10.348Z,9.73
2019-02-20T20:55:15.101Z,11.43
2019-02-20T20:57:58.115Z,11.07
2019-02-20T21:01:00.524Z,10.63
2019-02-20T21:03:43.518Z,9.85
2019-02-20T21:07:04.130Z,9.53
2019-02-20T21:09:53.913Z,9.47
2019-02-20T21:13:00.224Z,9.40
2019-02-20T21:15:47.156Z,8.63
2019-02-20T21:18:43.221Z,7.50
2019-02-20T21:21:42.477Z,9.33
2019-02-20T21:24:52.298Z,9.53
2019-02-20T21:27:53.586Z,9.00
2019-02-20T21:30:46.306Z,8.35
2019-02-20T21:33:35.263Z,9.90
2019-02-20T21:36:49.368Z,8.70
2019-02-20T21:39:41.512Z,9.20
2019-02-20T21:42:43.872Z,8.70
2019-02-20T21:45:35.237Z,8.40
2019-02-20T21:48:25.033Z,9.48
2019-02-20T21:51:38.410Z,8.35
2019-02-20T21:54:18.101Z,9.30
2019-02-20T21:56:55.958Z,9.78
2019-02-20T21:59:48.229Z,9.98
2019-02-20T22:02:22.325Z,9.65
2019-02-20T22:05:12.293Z,9.73
2019-02-20T22:08:08.743Z,9.53
2019-02-20T22:11:16.592Z,9.28
2019-02-20T22:14:22.293Z,8.93
2019-02-20T22:17:11.812Z,9.40
2019-02-20T22:20:01.223Z,9.38
2019-02-20T22:22:54.642Z,9.50
2019-02-20T22:25:37.735Z,9.03
2019-02-20T22:28:49.150Z,9.68
2019-02-20T22:31:45.773Z,9.88
2019-02-20T22:34:32.832Z,9.13
2019-02-20T22:37:22.601Z,9.38
2019-02-20T22:40:13.535Z,9.40
2019-02-20T22:42:53.861Z,9.73
2019-02-20T22:46:02.471Z,10.10
2019-02-20T22:48:56.378Z,8.15
2019-02-20T22:51:56.261Z,8.93
2019-02-20T22:54:43.659Z,9.15
2019-02-20T22:57:33.647Z,9.78
2019-02-20T23:00:34.289Z,10.03
2019-02-20T23:03:45.592Z,8.55
2019-02-20T23:06:28.997Z,8.80
2019-02-20T23:09:55.200Z,9.75
2019-02-20T23:12:43.113Z,8.98
2019-02-20T23:15:53.342Z,8.60
2019-02-20T23:18:26.741Z,9.08
2019-02-20T23:21:02.697Z,8.65
2019-02-20T23:23:35.971Z,8.78
2019-02-20T23:26:10.131Z,8.20
2019-02-20T23:29:09.207Z,9.43
2019-02-20T23:31:42.455Z,8.35
2019-02-20T23:34:52.069Z,9.05
2019-02-20T23:37:24.524Z,9.03
2019-02-20T23:40:04.657Z,8.90
2019-02-20T23:42:42.474Z,8.45
2019-02-20T23:45:15.488Z,7.75
2019-02-20T23:47:49.231Z,8.65
2019-02-20T23:50:21.985Z,8.85
2019-02-20T23:52:55.220Z,9.13
2019-02-20T23:55:28.566Z,7.85
2019-02-20T23:58:03.326Z,8.73
